sensor_id;sensor_type;location;lat;lon;timestamp;P1;durP1;ratioP1;P2;durP2;ratioP2
13967;SDS011;39536;52.198;9.920;2022-12-18T00:00:11;15.83;;;12.50;;
13967;SDS011;39536;52.198;9.920;2022-12-18T00:02:38;18.20;;;12.47;;
13967;SDS011;39536;52.198;9.920;2022-12-18T00:05:05;14.50;;;12.60;;
13967;SDS011;39536;52.198;9.920;2022-12-18T00:07:32;17.60;;;12.90;;
13967;SDS011;39536;52.198;9.920;2022-12-18T00:09:58;22.07;;;14.37;;
13967;SDS011;39536;52.198;9.920;2022-12-18T00:12:26;15.43;;;13.53;;
13967;SDS011;39536;52.198;9.920;2022-12-18T00:14:53;14.07;;;12.67;;
13967;SDS011;39536;52.198;9.920;2022-12-18T00:17:20;16.63;;;13.07;;
13967;SDS011;39536;52.198;9.920;2022-12-18T00:19:46;16.17;;;11.30;;
13967;SDS011;39536;52.198;9.920;2022-12-18T00:22:13;13.80;;;12.30;;
13967;SDS011;39536;52.198;9.920;2022-12-18T00:24:39;14.83;;;12.60;;
13967;SDS011;39536;52.198;9.920;2022-12-18T00:27:06;15.07;;;11.50;;
13967;SDS011;39536;52.198;9.920;2022-12-18T00:29:34;12.23;;;10.93;;
13967;SDS011;39536;52.198;9.920;2022-12-18T00:32:00;14.20;;;11.30;;
13967;SDS011;39536;52.198;9.920;2022-12-18T00:34:27;12.53;;;11.23;;
13967;SDS011;39536;52.198;9.920;2022-12-18T00:36:53;19.07;;;11.47;;
13967;SDS011;39536;52.198;9.920;2022-12-18T00:39:20;12.63;;;10.80;;
13967;SDS011;39536;52.198;9.920;2022-12-18T00:41:46;14.47;;;11.20;;
13967;SDS011;39536;52.198;9.920;2022-12-18T00:44:30;15.43;;;10.47;;
13967;SDS011;39536;52.198;9.920;2022-12-18T00:46:58;14.17;;;11.00;;
13967;SDS011;39536;52.198;9.920;2022-12-18T00:49:25;14.63;;;11.47;;
13967;SDS011;39536;52.198;9.920;2022-12-18T00:51:51;14.70;;;11.23;;
13967;SDS011;39536;52.198;9.920;2022-12-18T00:54:18;15.47;;;12.20;;
13967;SDS011;39536;52.198;9.920;2022-12-18T00:56:44;14.13;;;11.40;;
13967;SDS011;39536;52.198;9.920;2022-12-18T00:59:11;13.00;;;11.53;;
13967;SDS011;39536;52.198;9.920;2022-12-18T01:01:38;12.17;;;10.60;;
13967;SDS011;39536;52.198;9.920;2022-12-18T01:04:06;11.40;;;10.20;;
13967;SDS011;39536;52.198;9.920;2022-12-18T01:06:32;13.80;;;10.70;;
13967;SDS011;39536;52.198;9.920;2022-12-18T01:08:59;13.30;;;10.97;;
13967;SDS011;39536;52.198;9.920;2022-12-18T01:11:25;13.60;;;12.20;;
13967;SDS011;39536;52.198;9.920;2022-12-18T01:13:52;12.37;;;11.10;;
13967;SDS011;39536;52.198;9.920;2022-12-18T01:16:19;14.80;;;11.60;;
13967;SDS011;39536;52.198;9.920;2022-12-18T01:18:47;14.63;;;11.20;;
13967;SDS011;39536;52.198;9.920;2022-12-18T01:21:15;13.03;;;11.60;;
13967;SDS011;39536;52.198;9.920;2022-12-18T01:23:42;13.10;;;10.93;;
13967;SDS011;39536;52.198;9.920;2022-12-18T01:26:10;12.67;;;10.93;;
13967;SDS011;39536;52.198;9.920;2022-12-18T01:28:38;12.03;;;10.83;;
13967;SDS011;39536;52.198;9.920;2022-12-18T01:31:13;12.40;;;11.13;;
13967;SDS011;39536;52.198;9.920;2022-12-18T01:33:41;13.23;;;10.87;;
13967;SDS011;39536;52.198;9.920;2022-12-18T01:36:08;12.80;;;10.57;;
13967;SDS011;39536;52.198;9.920;2022-12-18T01:38:41;14.40;;;11.37;;
13967;SDS011;39536;52.198;9.920;2022-12-18T01:41:08;13.40;;;10.50;;
13967;SDS011;39536;52.198;9.920;2022-12-18T01:43:45;11.97;;;10.77;;
13967;SDS011;39536;52.198;9.920;2022-12-18T01:46:14;14.23;;;12.57;;
13967;SDS011;39536;52.198;9.920;2022-12-18T01:48:42;17.37;;;11.33;;
13967;SDS011;39536;52.198;9.920;2022-12-18T01:51:10;12.27;;;10.97;;
13967;SDS011;39536;52.198;9.920;2022-12-18T01:53:38;14.60;;;10.97;;
13967;SDS011;39536;52.198;9.920;2022-12-18T01:56:08;12.30;;;10.97;;
13967;SDS011;39536;52.198;9.920;2022-12-18T01:58:41;14.90;;;11.13;;
13967;SDS011;39536;52.198;9.920;2022-12-18T02:01:12;12.40;;;11.10;;
13967;SDS011;39536;52.198;9.920;2022-12-18T02:03:40;13.23;;;10.67;;
13967;SDS011;39536;52.198;9.920;2022-12-18T02:06:09;12.30;;;10.83;;
13967;SDS011;39536;52.198;9.920;2022-12-18T02:08:42;16.10;;;11.93;;
13967;SDS011;39536;52.198;9.920;2022-12-18T02:11:18;15.07;;;12.13;;
13967;SDS011;39536;52.198;9.920;2022-12-18T02:13:58;12.90;;;10.83;;
13967;SDS011;39536;52.198;9.920;2022-12-18T02:16:34;16.37;;;11.00;;
13967;SDS011;39536;52.198;9.920;2022-12-18T02:19:16;16.53;;;11.63;;
13967;SDS011;39536;52.198;9.920;2022-12-18T02:21:56;14.87;;;11.33;;
13967;SDS011;39536;52.198;9.920;2022-12-18T02:24:33;11.60;;;10.13;;
13967;SDS011;39536;52.198;9.920;2022-12-18T02:27:07;12.67;;;10.23;;
13967;SDS011;39536;52.198;9.920;2022-12-18T02:29:37;15.23;;;11.07;;
13967;SDS011;39536;52.198;9.920;2022-12-18T02:32:08;13.33;;;10.73;;
13967;SDS011;39536;52.198;9.920;2022-12-18T02:34:40;11.37;;;10.17;;
13967;SDS011;39536;52.198;9.920;2022-12-18T02:37:07;13.80;;;10.37;;
13967;SDS011;39536;52.198;9.920;2022-12-18T02:39:38;14.03;;;11.17;;
13967;SDS011;39536;52.198;9.920;2022-12-18T02:42:09;11.27;;;9.67;;
13967;SDS011;39536;52.198;9.920;2022-12-18T02:44:41;12.50;;;9.93;;
13967;SDS011;39536;52.198;9.920;2022-12-18T02:47:09;10.80;;;9.70;;
13967;SDS011;39536;52.198;9.920;2022-12-18T02:49:40;14.37;;;9.90;;
13967;SDS011;39536;52.198;9.920;2022-12-18T02:52:17;11.87;;;10.67;;
13967;SDS011;39536;52.198;9.920;2022-12-18T02:54:55;13.67;;;10.43;;
13967;SDS011;39536;52.198;9.920;2022-12-18T02:57:31;11.37;;;8.93;;
13967;SDS011;39536;52.198;9.920;2022-12-18T03:00:03;15.93;;;10.43;;
13967;SDS011;39536;52.198;9.920;2022-12-18T03:02:33;11.23;;;9.20;;
13967;SDS011;39536;52.198;9.920;2022-12-18T03:05:06;12.23;;;10.20;;
13967;SDS011;39536;52.198;9.920;2022-12-18T03:07:38;13.27;;;9.70;;
13967;SDS011;39536;52.198;9.920;2022-12-18T03:10:09;14.30;;;10.17;;
13967;SDS011;39536;52.198;9.920;2022-12-18T03:12:41;12.37;;;10.57;;
13967;SDS011;39536;52.198;9.920;2022-12-18T03:15:12;11.20;;;9.87;;
13967;SDS011;39536;52.198;9.920;2022-12-18T03:17:44;12.10;;;10.10;;
13967;SDS011;39536;52.198;9.920;2022-12-18T03:20:15;13.10;;;9.87;;
13967;SDS011;39536;52.198;9.920;2022-12-18T03:22:46;17.03;;;9.37;;
13967;SDS011;39536;52.198;9.920;2022-12-18T03:25:16;11.77;;;9.90;;
13967;SDS011;39536;52.198;9.920;2022-12-18T03:27:46;11.60;;;9.10;;
13967;SDS011;39536;52.198;9.920;2022-12-18T03:30:16;12.83;;;9.73;;
13967;SDS011;39536;52.198;9.920;2022-12-18T03:32:46;13.47;;;10.77;;
13967;SDS011;39536;52.198;9.920;2022-12-18T03:35:20;10.63;;;9.53;;
13967;SDS011;39536;52.198;9.920;2022-12-18T03:37:49;13.40;;;10.03;;
13967;SDS011;39536;52.198;9.920;2022-12-18T03:40:15;12.10;;;10.17;;
13967;SDS011;39536;52.198;9.920;2022-12-18T03:42:44;12.93;;;10.73;;
13967;SDS011;39536;52.198;9.920;2022-12-18T03:45:18;13.87;;;10.63;;
13967;SDS011;39536;52.198;9.920;2022-12-18T03:47:53;10.63;;;9.47;;
13967;SDS011;39536;52.198;9.920;2022-12-18T03:50:29;13.23;;;9.87;;
13967;SDS011;39536;52.198;9.920;2022-12-18T03:53:04;13.10;;;11.20;;
13967;SDS011;39536;52.198;9.920;2022-12-18T03:55:40;11.23;;;10.13;;
13967;SDS011;39536;52.198;9.920;2022-12-18T03:58:10;11.70;;;10.23;;
13967;SDS011;39536;52.198;9.920;2022-12-18T04:00:41;13.23;;;10.03;;
13967;SDS011;39536;52.198;9.920;2022-12-18T04:03:09;14.80;;;9.60;;
13967;SDS011;39536;52.198;9.920;2022-12-18T04:05:38;11.27;;;10.17;;
13967;SDS011;39536;52.198;9.920;2022-12-18T04:08:06;13.13;;;10.43;;
13967;SDS011;39536;52.198;9.920;2022-12-18T04:10:32;12.00;;;9.63;;
13967;SDS011;39536;52.198;9.920;2022-12-18T04:12:59;10.87;;;9.23;;
13967;SDS011;39536;52.198;9.920;2022-12-18T04:15:27;11.17;;;9.80;;
13967;SDS011;39536;52.198;9.920;2022-12-18T04:17:54;11.33;;;9.57;;
13967;SDS011;39536;52.198;9.920;2022-12-18T04:20:20;10.57;;;9.47;;
13967;SDS011;39536;52.198;9.920;2022-12-18T04:22:47;12.07;;;9.53;;
13967;SDS011;39536;52.198;9.920;2022-12-18T04:25:13;14.83;;;10.33;;
13967;SDS011;39536;52.198;9.920;2022-12-18T04:27:40;10.97;;;9.93;;
13967;SDS011;39536;52.198;9.920;2022-12-18T04:30:07;11.80;;;10.13;;
13967;SDS011;39536;52.198;9.920;2022-12-18T04:32:35;11.23;;;10.07;;
13967;SDS011;39536;52.198;9.920;2022-12-18T04:35:02;12.93;;;9.83;;
13967;SDS011;39536;52.198;9.920;2022-12-18T04:37:31;13.93;;;10.83;;
13967;SDS011;39536;52.198;9.920;2022-12-18T04:39:58;13.47;;;9.70;;
13967;SDS011;39536;52.198;9.920;2022-12-18T04:42:24;10.20;;;9.10;;
13967;SDS011;39536;52.198;9.920;2022-12-18T04:44:51;13.47;;;9.90;;
13967;SDS011;39536;52.198;9.920;2022-12-18T04:47:18;11.90;;;9.87;;
13967;SDS011;39536;52.198;9.920;2022-12-18T04:49:45;10.80;;;8.53;;
13967;SDS011;39536;52.198;9.920;2022-12-18T04:52:12;10.40;;;9.33;;
13967;SDS011;39536;52.198;9.920;2022-12-18T04:54:39;11.00;;;9.10;;
13967;SDS011;39536;52.198;9.920;2022-12-18T04:57:05;12.47;;;9.77;;
13967;SDS011;39536;52.198;9.920;2022-12-18T04:59:32;12.07;;;9.93;;
13967;SDS011;39536;52.198;9.920;2022-12-18T05:01:58;12.40;;;8.93;;
13967;SDS011;39536;52.198;9.920;2022-12-18T05:04:25;14.10;;;8.93;;
13967;SDS011;39536;52.198;9.920;2022-12-18T05:06:53;10.73;;;8.80;;
13967;SDS011;39536;52.198;9.920;2022-12-18T05:09:20;16.20;;;9.07;;
13967;SDS011;39536;52.198;9.920;2022-12-18T05:11:46;12.67;;;9.20;;
13967;SDS011;39536;52.198;9.920;2022-12-18T05:14:13;10.03;;;8.90;;
13967;SDS011;39536;52.198;9.920;2022-12-18T05:16:39;15.13;;;9.60;;
13967;SDS011;39536;52.198;9.920;2022-12-18T05:19:06;10.33;;;9.13;;
13967;SDS011;39536;52.198;9.920;2022-12-18T05:21:32;10.43;;;9.23;;
13967;SDS011;39536;52.198;9.920;2022-12-18T05:24:00;14.13;;;9.80;;
13967;SDS011;39536;52.198;9.920;2022-12-18T05:26:27;9.30;;;8.07;;
13967;SDS011;39536;52.198;9.920;2022-12-18T05:28:56;16.43;;;9.27;;
13967;SDS011;39536;52.198;9.920;2022-12-18T05:31:23;10.90;;;9.57;;
13967;SDS011;39536;52.198;9.920;2022-12-18T05:33:49;9.60;;;8.60;;
13967;SDS011;39536;52.198;9.920;2022-12-18T05:36:16;13.13;;;9.23;;
13967;SDS011;39536;52.198;9.920;2022-12-18T05:38:42;11.30;;;8.07;;
13967;SDS011;39536;52.198;9.920;2022-12-18T05:41:10;9.10;;;8.20;;
13967;SDS011;39536;52.198;9.920;2022-12-18T05:43:38;8.90;;;8.00;;
13967;SDS011;39536;52.198;9.920;2022-12-18T05:46:06;10.57;;;7.90;;
13967;SDS011;39536;52.198;9.920;2022-12-18T05:48:34;9.40;;;7.70;;
13967;SDS011;39536;52.198;9.920;2022-12-18T05:51:04;10.23;;;8.23;;
13967;SDS011;39536;52.198;9.920;2022-12-18T05:53:32;9.77;;;8.37;;
13967;SDS011;39536;52.198;9.920;2022-12-18T05:55:59;9.73;;;8.20;;
13967;SDS011;39536;52.198;9.920;2022-12-18T05:58:28;8.73;;;7.40;;
13967;SDS011;39536;52.198;9.920;2022-12-18T06:00:54;10.53;;;7.33;;
13967;SDS011;39536;52.198;9.920;2022-12-18T06:03:21;8.37;;;7.37;;
13967;SDS011;39536;52.198;9.920;2022-12-18T06:05:47;8.67;;;7.27;;
13967;SDS011;39536;52.198;9.920;2022-12-18T06:08:14;9.17;;;8.23;;
13967;SDS011;39536;52.198;9.920;2022-12-18T06:10:41;10.40;;;8.20;;
13967;SDS011;39536;52.198;9.920;2022-12-18T06:13:08;12.60;;;7.97;;
13967;SDS011;39536;52.198;9.920;2022-12-18T06:15:37;8.93;;;7.93;;
13967;SDS011;39536;52.198;9.920;2022-12-18T06:18:04;8.87;;;7.97;;
13967;SDS011;39536;52.198;9.920;2022-12-18T06:20:30;10.93;;;7.33;;
13967;SDS011;39536;52.198;9.920;2022-12-18T06:22:57;9.73;;;7.93;;
13967;SDS011;39536;52.198;9.920;2022-12-18T06:25:23;8.10;;;7.37;;
13967;SDS011;39536;52.198;9.920;2022-12-18T06:27:50;10.27;;;7.97;;
13967;SDS011;39536;52.198;9.920;2022-12-18T06:30:16;10.27;;;8.37;;
13967;SDS011;39536;52.198;9.920;2022-12-18T06:32:44;12.00;;;8.63;;
13967;SDS011;39536;52.198;9.920;2022-12-18T06:35:11;10.97;;;8.53;;
13967;SDS011;39536;52.198;9.920;2022-12-18T06:37:37;11.10;;;8.47;;
13967;SDS011;39536;52.198;9.920;2022-12-18T06:40:04;15.20;;;9.27;;
13967;SDS011;39536;52.198;9.920;2022-12-18T06:42:32;10.23;;;9.00;;
13967;SDS011;39536;52.198;9.920;2022-12-18T06:44:58;10.67;;;7.63;;
13967;SDS011;39536;52.198;9.920;2022-12-18T06:47:25;9.90;;;7.47;;
13967;SDS011;39536;52.198;9.920;2022-12-18T06:49:53;11.57;;;7.20;;
13967;SDS011;39536;52.198;9.920;2022-12-18T06:52:19;10.33;;;6.93;;
13967;SDS011;39536;52.198;9.920;2022-12-18T06:54:46;8.30;;;7.40;;
13967;SDS011;39536;52.198;9.920;2022-12-18T06:57:12;13.43;;;10.73;;
13967;SDS011;39536;52.198;9.920;2022-12-18T06:59:39;9.50;;;8.17;;
13967;SDS011;39536;52.198;9.920;2022-12-18T07:02:05;8.20;;;7.27;;
13967;SDS011;39536;52.198;9.920;2022-12-18T07:04:32;8.07;;;7.30;;
13967;SDS011;39536;52.198;9.920;2022-12-18T07:07:00;9.87;;;7.73;;
13967;SDS011;39536;52.198;9.920;2022-12-18T07:09:26;9.50;;;7.80;;
13967;SDS011;39536;52.198;9.920;2022-12-18T07:11:53;10.80;;;8.17;;
13967;SDS011;39536;52.198;9.920;2022-12-18T07:14:20;10.80;;;7.73;;
13967;SDS011;39536;52.198;9.920;2022-12-18T07:16:46;8.23;;;7.43;;
13967;SDS011;39536;52.198;9.920;2022-12-18T07:19:13;9.03;;;6.90;;
13967;SDS011;39536;52.198;9.920;2022-12-18T07:21:39;11.20;;;7.40;;
13967;SDS011;39536;52.198;9.920;2022-12-18T07:24:08;9.20;;;8.00;;
13967;SDS011;39536;52.198;9.920;2022-12-18T07:26:34;10.17;;;7.47;;
13967;SDS011;39536;52.198;9.920;2022-12-18T07:29:01;10.97;;;8.10;;
13967;SDS011;39536;52.198;9.920;2022-12-18T07:31:27;7.30;;;6.60;;
13967;SDS011;39536;52.198;9.920;2022-12-18T07:33:54;8.60;;;7.30;;
13967;SDS011;39536;52.198;9.920;2022-12-18T07:36:20;7.10;;;6.40;;
13967;SDS011;39536;52.198;9.920;2022-12-18T07:38:50;8.20;;;7.23;;
13967;SDS011;39536;52.198;9.920;2022-12-18T07:41:19;8.23;;;7.07;;
13967;SDS011;39536;52.198;9.920;2022-12-18T07:43:46;8.20;;;7.40;;
13967;SDS011;39536;52.198;9.920;2022-12-18T07:46:13;8.20;;;7.40;;
13967;SDS011;39536;52.198;9.920;2022-12-18T07:48:40;7.23;;;6.40;;
13967;SDS011;39536;52.198;9.920;2022-12-18T07:51:07;7.87;;;7.07;;
13967;SDS011;39536;52.198;9.920;2022-12-18T07:53:34;7.60;;;6.50;;
13967;SDS011;39536;52.198;9.920;2022-12-18T07:56:02;7.93;;;6.93;;
13967;SDS011;39536;52.198;9.920;2022-12-18T07:58:31;9.20;;;7.40;;
13967;SDS011;39536;52.198;9.920;2022-12-18T08:01:01;9.60;;;8.00;;
13967;SDS011;39536;52.198;9.920;2022-12-18T08:03:29;12.97;;;10.13;;
13967;SDS011;39536;52.198;9.920;2022-12-18T08:05:57;10.93;;;8.43;;
13967;SDS011;39536;52.198;9.920;2022-12-18T08:08:25;11.40;;;8.70;;
13967;SDS011;39536;52.198;9.920;2022-12-18T08:10:51;11.13;;;9.33;;
13967;SDS011;39536;52.198;9.920;2022-12-18T08:13:18;9.77;;;8.10;;
13967;SDS011;39536;52.198;9.920;2022-12-18T08:15:46;9.83;;;8.83;;
13967;SDS011;39536;52.198;9.920;2022-12-18T08:18:12;7.63;;;6.93;;
13967;SDS011;39536;52.198;9.920;2022-12-18T08:20:39;9.40;;;7.27;;
13967;SDS011;39536;52.198;9.920;2022-12-18T08:23:05;7.33;;;6.10;;
13967;SDS011;39536;52.198;9.920;2022-12-18T08:25:32;7.60;;;6.77;;
13967;SDS011;39536;52.198;9.920;2022-12-18T08:27:59;9.73;;;6.10;;
13967;SDS011;39536;52.198;9.920;2022-12-18T08:30:26;8.00;;;6.13;;
13967;SDS011;39536;52.198;9.920;2022-12-18T08:32:54;7.27;;;6.00;;
13967;SDS011;39536;52.198;9.920;2022-12-18T08:35:20;6.13;;;5.33;;
13967;SDS011;39536;52.198;9.920;2022-12-18T08:37:47;6.63;;;5.00;;
13967;SDS011;39536;52.198;9.920;2022-12-18T08:40:13;7.63;;;5.70;;
13967;SDS011;39536;52.198;9.920;2022-12-18T08:42:40;6.37;;;5.07;;
13967;SDS011;39536;52.198;9.920;2022-12-18T08:45:24;6.13;;;5.03;;
13967;SDS011;39536;52.198;9.920;2022-12-18T08:47:51;10.67;;;5.67;;
13967;SDS011;39536;52.198;9.920;2022-12-18T08:50:19;6.80;;;5.30;;
13967;SDS011;39536;52.198;9.920;2022-12-18T08:52:46;5.73;;;5.10;;
13967;SDS011;39536;52.198;9.920;2022-12-18T08:55:12;9.50;;;5.43;;
13967;SDS011;39536;52.198;9.920;2022-12-18T08:57:39;6.87;;;6.03;;
13967;SDS011;39536;52.198;9.920;2022-12-18T09:00:06;8.50;;;6.23;;
13967;SDS011;39536;52.198;9.920;2022-12-18T09:02:34;6.13;;;5.53;;
13967;SDS011;39536;52.198;9.920;2022-12-18T09:05:01;8.57;;;6.70;;
13967;SDS011;39536;52.198;9.920;2022-12-18T09:07:29;7.67;;;5.87;;
13967;SDS011;39536;52.198;9.920;2022-12-18T09:09:55;7.70;;;5.47;;
13967;SDS011;39536;52.198;9.920;2022-12-18T09:12:22;7.67;;;5.97;;
13967;SDS011;39536;52.198;9.920;2022-12-18T09:14:48;6.70;;;6.03;;
13967;SDS011;39536;52.198;9.920;2022-12-18T09:17:15;8.57;;;6.27;;
13967;SDS011;39536;52.198;9.920;2022-12-18T09:19:41;7.50;;;6.63;;
13967;SDS011;39536;52.198;9.920;2022-12-18T09:22:08;8.83;;;6.77;;
13967;SDS011;39536;52.198;9.920;2022-12-18T09:24:36;8.63;;;7.67;;
13967;SDS011;39536;52.198;9.920;2022-12-18T09:27:03;9.53;;;8.20;;
13967;SDS011;39536;52.198;9.920;2022-12-18T09:29:29;9.70;;;7.53;;
13967;SDS011;39536;52.198;9.920;2022-12-18T09:31:56;9.53;;;6.40;;
13967;SDS011;39536;52.198;9.920;2022-12-18T09:34:22;6.37;;;5.63;;
13967;SDS011;39536;52.198;9.920;2022-12-18T09:36:49;5.27;;;4.83;;
13967;SDS011;39536;52.198;9.920;2022-12-18T09:39:17;5.13;;;4.60;;
13967;SDS011;39536;52.198;9.920;2022-12-18T09:41:46;8.77;;;5.43;;
13967;SDS011;39536;52.198;9.920;2022-12-18T09:44:20;7.20;;;6.50;;
13967;SDS011;39536;52.198;9.920;2022-12-18T09:46:50;8.37;;;6.00;;
13967;SDS011;39536;52.198;9.920;2022-12-18T09:49:22;6.87;;;5.93;;
13967;SDS011;39536;52.198;9.920;2022-12-18T09:51:53;7.57;;;6.80;;
13967;SDS011;39536;52.198;9.920;2022-12-18T09:54:25;7.87;;;5.50;;
13967;SDS011;39536;52.198;9.920;2022-12-18T09:56:57;9.33;;;5.37;;
13967;SDS011;39536;52.198;9.920;2022-12-18T09:59:25;4.47;;;4.07;;
13967;SDS011;39536;52.198;9.920;2022-12-18T10:01:56;6.67;;;4.27;;
13967;SDS011;39536;52.198;9.920;2022-12-18T10:04:23;5.67;;;4.70;;
13967;SDS011;39536;52.198;9.920;2022-12-18T10:06:52;6.77;;;4.80;;
13967;SDS011;39536;52.198;9.920;2022-12-18T10:09:27;4.47;;;3.53;;
13967;SDS011;39536;52.198;9.920;2022-12-18T10:12:02;4.23;;;3.83;;
13967;SDS011;39536;52.198;9.920;2022-12-18T10:14:35;3.90;;;3.50;;
13967;SDS011;39536;52.198;9.920;2022-12-18T10:17:09;6.87;;;4.17;;
13967;SDS011;39536;52.198;9.920;2022-12-18T10:19:43;3.40;;;3.10;;
13967;SDS011;39536;52.198;9.920;2022-12-18T10:22:18;3.70;;;3.40;;
13967;SDS011;39536;52.198;9.920;2022-12-18T10:24:53;3.43;;;3.13;;
13967;SDS011;39536;52.198;9.920;2022-12-18T10:27:27;3.43;;;3.10;;
13967;SDS011;39536;52.198;9.920;2022-12-18T10:29:54;5.47;;;3.40;;
13967;SDS011;39536;52.198;9.920;2022-12-18T10:32:22;3.97;;;3.53;;
13967;SDS011;39536;52.198;9.920;2022-12-18T10:34:51;3.97;;;3.40;;
13967;SDS011;39536;52.198;9.920;2022-12-18T10:37:20;5.00;;;4.23;;
13967;SDS011;39536;52.198;9.920;2022-12-18T10:40:04;4.13;;;3.67;;
13967;SDS011;39536;52.198;9.920;2022-12-18T10:42:36;4.17;;;3.77;;
13967;SDS011;39536;52.198;9.920;2022-12-18T10:45:03;4.20;;;3.90;;
13967;SDS011;39536;52.198;9.920;2022-12-18T10:47:35;4.30;;;3.90;;
13967;SDS011;39536;52.198;9.920;2022-12-18T10:50:11;5.03;;;3.40;;
13967;SDS011;39536;52.198;9.920;2022-12-18T10:52:52;3.40;;;3.10;;
13967;SDS011;39536;52.198;9.920;2022-12-18T10:55:24;5.30;;;2.60;;
13967;SDS011;39536;52.198;9.920;2022-12-18T10:57:57;4.67;;;4.20;;
13967;SDS011;39536;52.198;9.920;2022-12-18T11:00:43;6.50;;;5.80;;
13967;SDS011;39536;52.198;9.920;2022-12-18T11:03:28;5.23;;;4.73;;
13967;SDS011;39536;52.198;9.920;2022-12-18T11:06:04;4.90;;;3.40;;
13967;SDS011;39536;52.198;9.920;2022-12-18T11:08:34;3.43;;;2.70;;
13967;SDS011;39536;52.198;9.920;2022-12-18T11:11:02;4.73;;;4.30;;
13967;SDS011;39536;52.198;9.920;2022-12-18T11:13:34;3.77;;;3.40;;
13967;SDS011;39536;52.198;9.920;2022-12-18T11:16:00;3.20;;;2.90;;
13967;SDS011;39536;52.198;9.920;2022-12-18T11:18:28;3.13;;;2.83;;
13967;SDS011;39536;52.198;9.920;2022-12-18T11:20:57;4.97;;;2.80;;
13967;SDS011;39536;52.198;9.920;2022-12-18T11:23:26;2.87;;;2.67;;
13967;SDS011;39536;52.198;9.920;2022-12-18T11:25:55;3.33;;;3.00;;
13967;SDS011;39536;52.198;9.920;2022-12-18T11:28:27;3.50;;;3.13;;
13967;SDS011;39536;52.198;9.920;2022-12-18T11:31:16;5.40;;;3.30;;
13967;SDS011;39536;52.198;9.920;2022-12-18T11:33:47;3.80;;;2.87;;
13967;SDS011;39536;52.198;9.920;2022-12-18T11:36:20;5.33;;;4.20;;
13967;SDS011;39536;52.198;9.920;2022-12-18T11:38:48;3.07;;;2.77;;
13967;SDS011;39536;52.198;9.920;2022-12-18T11:41:19;2.80;;;2.47;;
13967;SDS011;39536;52.198;9.920;2022-12-18T11:44:10;3.33;;;2.60;;
13967;SDS011;39536;52.198;9.920;2022-12-18T11:46:43;4.10;;;3.30;;
13967;SDS011;39536;52.198;9.920;2022-12-18T11:49:17;3.97;;;3.30;;
13967;SDS011;39536;52.198;9.920;2022-12-18T11:51:50;2.90;;;2.70;;
13967;SDS011;39536;52.198;9.920;2022-12-18T11:54:20;11.43;;;3.50;;
13967;SDS011;39536;52.198;9.920;2022-12-18T11:56:48;3.93;;;3.50;;
13967;SDS011;39536;52.198;9.920;2022-12-18T11:59:19;5.23;;;3.40;;
13967;SDS011;39536;52.198;9.920;2022-12-18T12:01:58;3.73;;;3.33;;
13967;SDS011;39536;52.198;9.920;2022-12-18T12:04:48;4.97;;;3.60;;
13967;SDS011;39536;52.198;9.920;2022-12-18T12:07:32;2.73;;;2.53;;
13967;SDS011;39536;52.198;9.920;2022-12-18T12:10:09;4.07;;;2.93;;
13967;SDS011;39536;52.198;9.920;2022-12-18T12:12:51;3.20;;;2.90;;
13967;SDS011;39536;52.198;9.920;2022-12-18T12:15:28;3.30;;;3.00;;
13967;SDS011;39536;52.198;9.920;2022-12-18T12:18:08;2.73;;;2.53;;
13967;SDS011;39536;52.198;9.920;2022-12-18T12:20:49;3.27;;;2.67;;
13967;SDS011;39536;52.198;9.920;2022-12-18T12:23:22;2.50;;;2.30;;
13967;SDS011;39536;52.198;9.920;2022-12-18T12:25:58;3.33;;;2.70;;
13967;SDS011;39536;52.198;9.920;2022-12-18T12:28:37;4.70;;;2.70;;
13967;SDS011;39536;52.198;9.920;2022-12-18T12:31:17;4.80;;;3.23;;
13967;SDS011;39536;52.198;9.920;2022-12-18T12:33:56;5.33;;;4.00;;
13967;SDS011;39536;52.198;9.920;2022-12-18T12:36:32;5.37;;;4.87;;
13967;SDS011;39536;52.198;9.920;2022-12-18T12:39:05;5.33;;;4.57;;
13967;SDS011;39536;52.198;9.920;2022-12-18T12:41:34;5.30;;;4.87;;
13967;SDS011;39536;52.198;9.920;2022-12-18T12:44:21;4.70;;;4.13;;
13967;SDS011;39536;52.198;9.920;2022-12-18T12:46:52;4.80;;;3.90;;
13967;SDS011;39536;52.198;9.920;2022-12-18T12:49:24;4.23;;;3.63;;
13967;SDS011;39536;52.198;9.920;2022-12-18T12:51:56;4.73;;;4.33;;
13967;SDS011;39536;52.198;9.920;2022-12-18T12:54:29;4.80;;;4.40;;
13967;SDS011;39536;52.198;9.920;2022-12-18T12:57:00;5.90;;;5.37;;
13967;SDS011;39536;52.198;9.920;2022-12-18T12:59:34;9.67;;;8.67;;
13967;SDS011;39536;52.198;9.920;2022-12-18T13:02:10;8.57;;;7.20;;
13967;SDS011;39536;52.198;9.920;2022-12-18T13:04:47;8.17;;;7.20;;
13967;SDS011;39536;52.198;9.920;2022-12-18T13:07:19;8.23;;;6.67;;
13967;SDS011;39536;52.198;9.920;2022-12-18T13:12:50;10.53;;;8.07;;
13967;SDS011;39536;52.198;9.920;2022-12-18T13:15:23;12.13;;;9.73;;
13967;SDS011;39536;52.198;9.920;2022-12-18T13:18:03;12.53;;;9.20;;
13967;SDS011;39536;52.198;9.920;2022-12-18T13:20:37;11.70;;;9.53;;
13967;SDS011;39536;52.198;9.920;2022-12-18T13:25:55;10.67;;;9.13;;
13967;SDS011;39536;52.198;9.920;2022-12-18T13:28:23;9.60;;;8.60;;
13967;SDS011;39536;52.198;9.920;2022-12-18T13:31:13;14.03;;;8.40;;
13967;SDS011;39536;52.198;9.920;2022-12-18T13:33:41;9.50;;;8.53;;
13967;SDS011;39536;52.198;9.920;2022-12-18T13:36:13;9.97;;;8.80;;
13967;SDS011;39536;52.198;9.920;2022-12-18T13:39:09;10.17;;;9.17;;
13967;SDS011;39536;52.198;9.920;2022-12-18T13:41:51;11.53;;;9.63;;
13967;SDS011;39536;52.198;9.920;2022-12-18T13:44:23;9.80;;;8.80;;
13967;SDS011;39536;52.198;9.920;2022-12-18T13:46:56;13.43;;;10.10;;
13967;SDS011;39536;52.198;9.920;2022-12-18T13:49:25;13.73;;;10.20;;
13967;SDS011;39536;52.198;9.920;2022-12-18T13:51:57;16.00;;;12.87;;
13967;SDS011;39536;52.198;9.920;2022-12-18T13:54:25;12.33;;;11.03;;
13967;SDS011;39536;52.198;9.920;2022-12-18T13:56:56;14.43;;;11.67;;
13967;SDS011;39536;52.198;9.920;2022-12-18T13:59:23;14.00;;;12.43;;
13967;SDS011;39536;52.198;9.920;2022-12-18T14:01:52;12.40;;;10.87;;
13967;SDS011;39536;52.198;9.920;2022-12-18T14:04:23;18.30;;;13.20;;
13967;SDS011;39536;52.198;9.920;2022-12-18T14:06:52;14.50;;;13.00;;
13967;SDS011;39536;52.198;9.920;2022-12-18T14:09:25;16.33;;;13.07;;
13967;SDS011;39536;52.198;9.920;2022-12-18T14:11:54;15.30;;;13.57;;
13967;SDS011;39536;52.198;9.920;2022-12-18T14:14:44;16.97;;;13.43;;
13967;SDS011;39536;52.198;9.920;2022-12-18T14:17:13;15.87;;;13.10;;
13967;SDS011;39536;52.198;9.920;2022-12-18T14:19:43;17.47;;;14.67;;
13967;SDS011;39536;52.198;9.920;2022-12-18T14:22:14;18.03;;;13.63;;
13967;SDS011;39536;52.198;9.920;2022-12-18T14:24:42;16.37;;;13.57;;
13967;SDS011;39536;52.198;9.920;2022-12-18T14:27:17;18.97;;;13.53;;
13967;SDS011;39536;52.198;9.920;2022-12-18T14:29:47;17.77;;;15.27;;
13967;SDS011;39536;52.198;9.920;2022-12-18T14:32:14;16.27;;;14.07;;
13967;SDS011;39536;52.198;9.920;2022-12-18T14:34:45;14.87;;;13.27;;
13967;SDS011;39536;52.198;9.920;2022-12-18T14:37:12;16.03;;;14.37;;
13967;SDS011;39536;52.198;9.920;2022-12-18T14:39:40;18.97;;;14.20;;
13967;SDS011;39536;52.198;9.920;2022-12-18T14:42:17;16.00;;;13.60;;
13967;SDS011;39536;52.198;9.920;2022-12-18T14:44:44;18.40;;;13.30;;
13967;SDS011;39536;52.198;9.920;2022-12-18T14:47:13;14.30;;;12.97;;
13967;SDS011;39536;52.198;9.920;2022-12-18T14:49:41;16.40;;;14.17;;
13967;SDS011;39536;52.198;9.920;2022-12-18T14:52:16;18.77;;;15.20;;
13967;SDS011;39536;52.198;9.920;2022-12-18T14:54:49;19.97;;;14.47;;
13967;SDS011;39536;52.198;9.920;2022-12-18T14:57:18;27.17;;;18.07;;